Elm Creek, Canada
Current Conditions -  °F | °C
As of 10:00 PM on Thursday 30 Oct 2014 (Local Time) from CYPG Reporting Station
Clear Clear  
Wind Chill: 21°   Ceiling: Unl
Heat Index: 27°   Visibility: 15mi
Dew Point: 18°   Wind: 5mph
Humidity: 69%   Direction: 10°N
Pressure: 30.61"   Gusts: NA
Location:  49.67°N, 98°W
Report Text: CYPG 310300Z 01004KT 15SM SKC M03/M08 A3061 RMK SLP382
Loading
Personal Weather Stations






























Interactive Weather Map
Tropical Storm Tracking
New forecast layout! Learn more

10-Day Weather Forecast

Advertisements
Track Severe Weather on mobile